• Join FlightAware (Why Join?)
  • Login
  • US Flag 
03:26AM EDT


 

Airport Tracker/Info


-or-


 

Live Flight TrackerFlight Track Log ✈ EJA328 ✈ 23-Mar-2014 ✈ KSMO - KTRK

Flight Track Log - Related Links

Times and Time Zones

All times are in EDT time to prevent confusion due to time zone crossing. See the EJA328 flight status page for this flight to view local times or setup timezone preferences in your user account.

Time Position Orientation Groundspeed Altitude Reporting Facility
EDT Latitude Longitude Course Direction KTS MPH feet Rate Location/Type
01:32PM 33.9932 -118.4972 276° West 205 236 2,400  Level FlightAware ADS-B
01:33PM 34.0033 -118.5958 278° West 253 291 5,400 2,580 Climbing FlightAware ADS-B
01:33PM 34.0066 -118.6240 279° West 269 310 6,400 1,620 Climbing FlightAware ADS-B
01:34PM 34.0127 -118.6700 279° West 283 326 6,900 960 Climbing FlightAware ADS-B
01:34PM 34.0185 -118.7074 283° West 290 334 7,300 1,500 Climbing FlightAware ADS-B
01:34PM 34.0212 -118.7151 300° West 293 337 7,600 1,680 Climbing FlightAware ADS-B
01:35PM 34.0341 -118.7326 323° Northwest 291 335 7,900 1,500 Climbing FlightAware ADS-B
01:35PM 34.0430 -118.7384 336° Northwest 291 335 8,100 1,380 Climbing FlightAware ADS-B
01:35PM 34.0481 -118.7406 343° North 291 335 8,200 1,020 Climbing FlightAware ADS-B
01:35PM 34.0916 -118.7278 41° Northeast 284 327 8,800 660 Climbing FlightAware ADS-B
01:36PM 34.1437 -118.6725 41° Northeast 286 329 9,200 1,020 Climbing FlightAware ADS-B
01:37PM 34.1944 -118.6222 28° Northeast 294 338 10,600 1,920 Climbing FlightAware ADS-B
01:38PM 34.2232 -118.6137 North 294 338 11,500 1,800 Climbing FlightAware ADS-B
01:38PM 34.2502 -118.6221 340° North 308 354 11,900 1,500 Climbing FlightAware ADS-B
01:39PM 34.3081 -118.6465 341° North 341 392 13,000 2,340 Climbing FlightAware ADS-B
01:40PM 34.3992 -118.6856 340° North 351 404 15,800 2,640 Climbing FlightAware ADS-B
01:40PM 34.4608 -118.7121 340° North 361 415 17,400 2,340 Climbing FlightAware ADS-B
01:41PM 34.5525 -118.7520 340° North 373 429 19,700 1,800 Climbing FlightAware ADS-B
01:46PM 35.0254 -118.9070 352° North 421 484 27,300 1,560 Climbing FlightAware ADS-B
01:46PM 35.1124 -118.9213 352° North 434 499 28,000 1,080 Climbing FlightAware ADS-B
01:47PM 35.1971 -118.9352 352° North 437 503 28,900 1,320 Climbing FlightAware ADS-B
01:48PM 35.2680 -118.9469 352° North 440 506 29,700 660 Climbing FlightAware ADS-B
01:49PM 35.3907 -118.9671 352° North 452 520 30,000 60 Climbing FlightAware ADS-B
01:50PM 35.5758 -118.9977 352° North 439 505 30,000  Level FlightAware ADS-B
01:51PM 35.6501 -119.0101 352° North 445 512 30,000  Level FlightAware ADS-B
01:52PM 35.7219 -119.0239 352° North 445 512 30,000  Level Los Angeles Center
01:53PM 35.8700 -119.0483 352° North 445 512 30,000  Level Los Angeles Center
01:54PM 36.0444 -119.0775 352° North 454 522 30,000  Level Oakland Center
01:55PM 36.1694 -119.0994 352° North 455 524 30,000  Level Oakland Center
02:01PM 36.7954 -119.2035 352° North 442 509 30,000  Level FlightAware ADS-B
02:03PM 37.0827 -119.2529 352° North 442 509 30,000  Level FlightAware ADS-B
02:03PM 37.1854 -119.2708 352° North 441 507 30,000  Level FlightAware ADS-B
02:04PM 37.2652 -119.2846 352° North 440 506 30,000  Level FlightAware ADS-B
02:05PM 37.3423 -119.2980 352° North 439 505 30,000  Level FlightAware ADS-B
02:05PM 37.4304 -119.3133 352° North 439 505 30,000  Level FlightAware ADS-B
02:06PM 37.5480 -119.3339 352° North 438 504 30,000 -420 Level FlightAware ADS-B
02:07PM 37.6338 -119.3489 352° North 431 496 29,300 -1,380 Descending FlightAware ADS-B
02:09PM 37.8251 -119.3825 352° North 426 490 26,800 -1,560 Descending FlightAware ADS-B
02:09PM 37.8745 -119.3912 352° North 431 496 25,800 -1,560 Descending FlightAware ADS-B
02:10PM 37.9789 -119.4096 352° North 426 490 24,800 -1,320 Descending FlightAware ADS-B
02:11PM 38.0626 -119.4245 352° North 425 489 24,000 -480 Descending FlightAware ADS-B
02:12PM 38.1718 -119.4440 352° North 422 486 24,000 -600 Level FlightAware ADS-B
02:12PM 38.2538 -119.4585 352° North 411 473 23,100 -1,440 Descending FlightAware ADS-B
02:13PM 38.3264 -119.4714 352° North 402 463 22,100 -1,500 Descending FlightAware ADS-B
02:14PM 38.4395 -119.4917 352° North 393 452 20,600 -1,560 Descending FlightAware ADS-B
02:15PM 38.5046 -119.5257 327° Northwest 383 441 19,500 -1,500 Descending FlightAware ADS-B
02:15PM 38.5644 -119.5715 329° Northwest 381 438 18,600 -1,260 Descending FlightAware ADS-B
02:16PM 38.6301 -119.6199 329° Northwest 376 433 17,900 -1,320 Descending FlightAware ADS-B
02:17PM 38.6857 -119.6613 329° Northwest 359 413 16,900 -1,500 Descending FlightAware ADS-B
02:17PM 38.7457 -119.7061 329° Northwest 359 413 15,900 -1,320 Descending FlightAware ADS-B
02:18PM 38.8324 -119.7710 329° Northwest 350 403 14,700 -1,140 Descending FlightAware ADS-B
02:19PM 38.8729 -119.8013 329° Northwest 333 383 14,100 -540 Descending FlightAware ADS-B
02:20PM 38.9374 -119.8498 329° Northwest 322 371 14,000 -420 Descending FlightAware ADS-B
02:21PM 39.0542 -119.9379 329° Northwest 274 315 13,100 -480 Descending FlightAware ADS-B
02:22PM 39.1011 -119.9733 329° Northwest 282 325 13,000 -120 Descending FlightAware ADS-B
02:23PM 39.1439 -120.0057 329° Northwest 280 322 13,000 -180 Level FlightAware ADS-B
02:24PM 39.2082 -120.0541 330° Northwest 239 275 12,700 -660 Descending FlightAware ADS-B
02:25PM 39.2594 -120.0916 330° Northwest 205 236 11,700 -1,020 Descending FlightAware ADS-B
02:25PM 39.2869 -120.1125 328° Northwest 190 219 11,100 -900 Descending FlightAware ADS-B
02:26PM 39.3310 -120.1483 314° West 155 178 10,200 -900 Descending FlightAware ADS-B
02:27PM 39.3335 -120.1529 300° West 159 183 10,100 -600 Descending FlightAware ADS-B
02:28PM 39.3069 -120.2086 300° West 180 207 9,300 -600 Descending Oakland Center
02:30PM 39.3167 -120.1333 72° East  Level FlightAware Approximate
02:37PM 39.3200 -120.1396 72° East  Level Estimated
02:38PM 39.3167 -120.1333 72° East  Level FlightAware Approximate
02:39PM 39.3200 -120.1396 72° East  Level Estimated
02:40PM 39.3167 -120.1333 72° East  Level FlightAware Approximate
02:41PM 39.3200 -120.1396 72° East  Level Estimated
02:42PM 39.3167 -120.1333 72° East  Level FlightAware Approximate
02:43PM 39.3200 -120.1396 72° East  Level Estimated
02:44PM 39.3167 -120.1333 72° East  Level FlightAware Approximate